createdAt,value
2022-09-02T06:41:45.596Z,66.50
2022-09-02T06:44:16.090Z,66.00
2022-09-02T06:46:47.811Z,66.00
2022-09-02T06:49:16.464Z,66.40
2022-09-02T06:51:48.516Z,66.90
2022-09-02T10:56:03.789Z,53.80
2022-09-02T10:58:54.545Z,53.70
2022-09-02T11:01:44.843Z,54.90
2022-09-02T11:04:39.542Z,54.70
2022-09-02T11:07:10.848Z,53.00
2022-09-02T11:09:54.546Z,54.70
2022-09-02T11:12:27.053Z,54.70
2022-09-02T11:15:23.504Z,55.00
2022-09-02T11:18:45.041Z,54.60
2022-09-02T11:21:31.836Z,54.40
2022-09-02T11:24:09.479Z,54.40
2022-09-02T11:26:49.637Z,54.40
2022-09-02T11:29:45.328Z,54.50
2022-09-02T11:32:32.499Z,54.90
2022-09-02T11:35:03.636Z,55.10
2022-09-02T11:37:41.700Z,54.60
2022-09-02T11:40:33.767Z,53.90
2022-09-02T11:43:22.037Z,54.70
2022-09-02T11:46:17.574Z,54.20
2022-09-02T11:48:59.419Z,54.00
2022-09-02T11:51:54.468Z,53.90
2022-09-02T11:54:23.421Z,54.00
2022-09-02T11:56:58.785Z,55.90
2022-09-02T11:59:50.724Z,54.90
2022-09-02T12:02:51.966Z,55.40
2022-09-02T12:05:32.421Z,55.00
2022-09-02T12:08:05.192Z,54.10
2022-09-02T12:10:43.791Z,54.40
2022-09-02T12:13:29.399Z,54.50
2022-09-02T12:16:24.302Z,54.90
2022-09-02T12:19:00.767Z,53.70
2022-09-02T12:21:30.107Z,54.20
2022-09-02T12:23:57.025Z,54.40
2022-09-02T12:26:50.976Z,55.50
2022-09-02T12:29:20.533Z,54.50
2022-09-02T18:01:59.543Z,66.10
2022-09-02T18:04:45.013Z,66.60
2022-09-02T18:07:19.901Z,67.80
2022-09-02T18:09:47.382Z,67.20
2022-09-02T18:12:14.296Z,67.40
2022-09-02T18:14:54.035Z,67.20
2022-09-02T18:17:47.281Z,68.00
2022-09-02T18:20:18.407Z,68.50
2022-09-02T18:23:09.064Z,68.40
2022-09-02T18:26:07.094Z,68.70
2022-09-02T18:28:40.834Z,69.10
2022-09-02T18:31:27.959Z,70.00
2022-09-02T18:34:34.469Z,70.30
2022-09-02T18:37:16.300Z,69.70
2022-09-02T18:40:02.502Z,70.50
2022-09-02T18:42:57.729Z,70.50
2022-09-02T18:45:31.791Z,69.50
2022-09-02T18:48:05.245Z,69.40
2022-09-02T18:50:55.804Z,69.70
2022-09-02T18:53:32.217Z,70.80
2022-09-02T18:56:05.713Z,71.00
2022-09-02T18:58:50.802Z,71.60
2022-09-02T19:01:30.056Z,72.10
2022-09-02T19:04:00.147Z,70.70
2022-09-02T19:06:30.885Z,70.00
2022-09-02T19:09:00.862Z,69.00
2022-09-02T19:11:28.071Z,68.80
2022-09-02T19:14:09.005Z,69.10
2022-09-02T19:16:38.454Z,70.10
2022-09-02T19:19:06.503Z,70.90
2022-09-02T19:21:51.757Z,71.10
2022-09-02T19:24:25.426Z,71.60
2022-09-02T19:27:01.764Z,72.00
2022-09-02T19:29:29.128Z,71.60
2022-09-02T19:31:56.089Z,71.20
2022-09-02T19:34:24.124Z,70.90
2022-09-02T19:36:52.562Z,70.80
2022-09-02T19:39:19.473Z,70.10
2022-09-02T19:41:48.983Z,70.00
2022-09-02T19:44:17.457Z,70.80
2022-09-02T19:47:30.705Z,71.30
2022-09-02T19:49:31.327Z,72.20
2022-09-02T19:51:58.277Z,71.50
2022-09-02T19:54:26.543Z,69.50
2022-09-02T19:56:53.439Z,69.10
2022-09-02T19:59:20.367Z,68.50
2022-09-02T20:01:47.316Z,68.30
2022-09-02T20:04:14.269Z,68.50
2022-09-02T20:06:41.367Z,68.50
2022-09-02T20:09:08.255Z,68.50
2022-09-02T20:11:35.364Z,68.70
2022-09-02T20:14:05.494Z,69.20
2022-09-02T20:16:33.266Z,69.70
2022-09-02T20:19:00.255Z,69.40
2022-09-02T20:21:30.457Z,69.30
2022-09-02T20:24:06.509Z,69.30
2022-09-02T20:26:37.964Z,70.60
2022-09-02T20:29:26.804Z,70.70
2022-09-02T20:32:14.813Z,70.60
2022-09-02T20:34:49.650Z,69.80
2022-09-02T20:37:41.441Z,69.00
2022-09-02T20:40:11.358Z,68.80
2022-09-02T20:43:10.553Z,68.30
2022-09-02T20:45:50.766Z,69.30
2022-09-02T20:48:32.767Z,68.60
2022-09-02T20:51:21.632Z,68.00
2022-09-02T20:54:22.573Z,67.60
2022-09-02T20:57:07.936Z,67.50
2022-09-02T20:59:38.436Z,67.50
2022-09-02T21:02:09.932Z,67.50
2022-09-02T21:04:45.014Z,66.20
2022-09-02T21:07:23.732Z,66.00
2022-09-02T21:10:12.594Z,66.00
2022-09-02T21:12:58.075Z,67.20
2022-09-02T21:15:41.664Z,64.90
